Time;durP1;ratioP1;P1;durP2;ratioP2;P2;SDS_P1;SDS_P2;PMS_P1;PMS_P2;Temp;Humidity;BMP_temperature;BMP_pressure;BME280_temperature;BME280_humidity;BME280_pressure;Samples;Min_cycle;Max_cycle;Signal;HPM_P1;HPM_P2
2023/03/05 00:01:24;;;;;;;2.30;2.10;;;15.60;58.00;16.60;101299.00;;;;5035276;28;20266;-47
2023/03/05 00:03:51;;;;;;;3.13;2.43;;;15.60;58.10;16.60;101285.00;;;;5032435;28;20182;-44
2023/03/05 00:06:21;;;;;;;2.37;2.17;;;15.60;58.10;16.50;101287.00;;;;5030124;28;20895;-46
2023/03/05 00:08:47;;;;;;;2.33;2.10;;;15.60;58.10;16.50;101290.00;;;;5029999;28;20211;-45
2023/03/05 00:11:13;;;;;;;2.70;2.10;;;15.60;58.00;16.50;101283.00;;;;5020604;28;20171;-47
2023/03/05 00:13:39;;;;;;;2.33;2.10;;;15.60;57.90;16.50;101284.00;;;;5030066;28;20244;-45
2023/03/05 00:16:08;;;;;;;2.30;2.10;;;15.60;58.00;16.50;101282.00;;;;5029769;28;20220;-46
2023/03/05 00:18:34;;;;;;;2.30;2.10;;;15.50;58.00;16.50;101277.00;;;;5029810;28;20186;-46
2023/03/05 00:20:59;;;;;;;2.40;2.20;;;15.50;58.00;16.50;101277.00;;;;5029984;28;20187;-48
2023/03/05 00:23:25;;;;;;;2.47;2.23;;;15.50;58.00;16.50;101274.00;;;;5029945;28;20203;-46
2023/03/05 00:25:51;;;;;;;2.70;2.20;;;15.50;57.90;16.50;101276.00;;;;5029629;28;20245;-46
2023/03/05 00:28:17;;;;;;;2.50;2.30;;;15.50;58.00;16.50;101269.00;;;;5029547;28;20692;-45
2023/03/05 00:30:42;;;;;;;2.33;2.13;;;15.50;57.90;16.40;101210.00;;;;5029057;28;20649;-46
2023/03/05 00:33:09;;;;;;;2.20;2.00;;;15.50;57.90;16.40;101274.00;;;;5028774;28;20194;-47
2023/03/05 00:35:42;;;;;;;1.90;1.80;;;15.50;57.90;16.40;101273.00;;;;5027358;28;20199;-47
2023/03/05 00:38:08;;;;;;;2.43;2.00;;;15.50;57.90;16.40;101264.00;;;;5028973;28;20178;-47
2023/03/05 00:40:38;;;;;;;2.33;2.07;;;15.40;57.80;16.40;101262.00;;;;5028375;28;20236;-45
2023/03/05 00:43:04;;;;;;;2.50;2.20;;;15.40;57.90;16.40;101265.00;;;;5028609;28;20211;-47
2023/03/05 00:45:30;;;;;;;2.33;2.10;;;15.40;57.80;16.40;101262.00;;;;5028125;28;20237;-47
2023/03/05 00:47:56;;;;;;;2.30;2.10;;;15.40;58.10;16.40;101268.00;;;;5042157;28;20203;-49
2023/03/05 00:50:22;;;;;;;2.20;2.00;;;15.40;57.90;16.40;101257.00;;;;5037657;28;20203;-49
2023/03/05 00:52:47;;;;;;;2.03;1.93;;;15.40;57.90;16.40;101257.00;;;;5039145;28;20187;-46
2023/03/05 00:55:13;;;;;;;2.50;2.30;;;15.40;57.90;16.30;101259.00;;;;5025135;28;20188;-46
2023/03/05 00:57:39;;;;;;;2.30;2.10;;;15.40;57.80;16.30;101252.00;;;;5028758;28;20702;-45
2023/03/05 01:00:06;;;;;;;2.20;2.00;;;15.40;57.80;16.30;101254.00;;;;5028789;28;20261;-48
2023/03/05 01:02:31;;;;;;;2.30;2.10;;;15.40;57.80;16.30;101251.00;;;;5028607;28;20616;-47
2023/03/05 01:04:57;;;;;;;2.33;2.10;;;15.40;57.80;16.30;101259.00;;;;5028592;28;20350;-45
2023/03/05 01:07:23;;;;;;;1.80;1.70;;;15.30;57.70;16.30;101248.00;;;;5028252;28;20207;-45
2023/03/05 01:09:49;;;;;;;2.77;2.20;;;15.40;57.80;16.30;101247.00;;;;5027943;28;20651;-46
2023/03/05 01:12:14;;;;;;;2.20;2.00;;;15.30;57.70;16.30;101258.00;;;;5030729;28;20179;-44
2023/03/05 01:14:40;;;;;;;2.37;2.07;;;15.30;57.70;16.30;101245.00;;;;5031962;28;20565;-47
2023/03/05 01:17:06;;;;;;;2.43;2.20;;;15.30;57.60;16.30;101241.00;;;;5031836;28;20217;-45
2023/03/05 01:19:32;;;;;;;2.27;2.07;;;15.30;57.80;16.20;101237.00;;;;5031951;28;20317;-46
2023/03/05 01:21:58;;;;;;;2.00;1.90;;;15.30;57.70;16.20;101243.00;;;;5031751;28;20808;-46
2023/03/05 01:24:24;;;;;;;2.00;1.90;;;15.30;57.70;16.20;101238.00;;;;5030729;28;20182;-45
2023/03/05 01:26:50;;;;;;;2.70;2.10;;;15.20;57.60;16.20;101235.00;;;;5031873;28;20284;-48
2023/03/05 01:29:15;;;;;;;2.30;2.10;;;15.20;57.60;16.20;101227.00;;;;5031710;28;20210;-45
2023/03/05 01:31:41;;;;;;;2.30;2.10;;;15.20;57.60;16.20;101222.00;;;;5031734;28;20175;-46
2023/03/05 01:34:07;;;;;;;2.20;2.00;;;15.20;57.60;16.20;101234.00;;;;5031665;28;20186;-46
2023/03/05 01:36:32;;;;;;;2.40;2.20;;;15.20;57.60;16.20;101220.00;;;;5031443;28;20649;-47
2023/03/05 01:38:58;;;;;;;2.23;2.03;;;15.20;57.60;16.20;101215.00;;;;5030356;28;20183;-45
2023/03/05 01:41:24;;;;;;;3.20;2.17;;;15.20;57.60;16.20;101221.00;;;;5031591;28;20189;-45
2023/03/05 01:43:51;;;;;;;2.10;1.97;;;15.20;57.50;16.20;101213.00;;;;5032875;28;20183;-44
2023/03/05 01:46:36;;;;;;;2.23;1.83;;;15.20;57.60;16.10;101206.00;;;;5033004;28;20204;-48
2023/03/05 01:49:21;;;;;;;2.43;2.00;;;15.20;57.50;16.10;101211.00;;;;5032794;28;20198;-48
2023/03/05 01:52:18;;;;;;;1.90;1.70;;;15.20;57.50;16.10;101202.00;;;;5039580;28;20179;-46
2023/03/05 01:54:47;;;;;;;2.07;1.80;;;15.20;57.60;16.10;101208.00;;;;5038672;28;20223;-46
2023/03/05 01:57:15;;;;;;;2.10;1.90;;;15.20;57.60;16.10;101207.00;;;;5011537;28;20206;-48
2023/03/05 01:59:43;;;;;;;2.00;1.70;;;15.10;57.50;16.10;101209.00;;;;5035286;28;20187;-47
2023/03/05 02:02:08;;;;;;;2.40;2.10;;;15.10;57.50;16.10;101202.00;;;;5033666;28;20183;-46
2023/03/05 02:04:43;;;;;;;2.03;1.87;;;15.10;57.50;16.10;101201.00;;;;5032502;28;20191;-45
2023/03/05 02:07:09;;;;;;;2.17;1.97;;;15.10;57.50;16.00;101194.00;;;;5030631;28;20692;-46
2023/03/05 02:09:40;;;;;;;2.10;1.90;;;15.10;57.50;16.00;101194.00;;;;5013621;28;20203;-46
2023/03/05 02:12:07;;;;;;;2.23;1.80;;;15.10;57.50;16.00;101192.00;;;;5029918;28;20378;-46
2023/03/05 02:14:32;;;;;;;2.23;2.00;;;15.10;57.50;16.00;101179.00;;;;5029697;28;20178;-44
2023/03/05 02:16:58;;;;;;;1.90;1.80;;;15.10;57.40;16.00;101175.00;;;;5009837;28;20206;-45
2023/03/05 02:19:24;;;;;;;1.90;1.80;;;15.00;57.30;16.00;101171.00;;;;5026874;28;20193;-46
2023/03/05 02:21:50;;;;;;;2.20;2.00;;;15.00;57.40;16.00;101174.00;;;;5030362;28;20190;-45
2023/03/05 02:24:30;;;;;;;2.07;1.87;;;15.00;57.30;16.00;101168.00;;;;5029739;28;20235;-46
2023/03/05 02:26:56;;;;;;;2.10;1.90;;;15.00;57.40;16.00;101106.00;;;;5029517;28;20226;-46
2023/03/05 02:29:22;;;;;;;1.80;1.70;;;15.00;57.30;16.00;101168.00;;;;5030562;28;20225;-46
2023/03/05 02:31:47;;;;;;;1.83;1.73;;;15.00;57.30;16.00;101164.00;;;;5029430;28;20660;-49
2023/03/05 02:34:13;;;;;;;2.00;1.80;;;15.00;57.30;16.00;101163.00;;;;5030796;28;20190;-46
2023/03/05 02:36:39;;;;;;;2.00;1.80;;;15.00;57.30;16.00;101163.00;;;;5030564;28;20202;-44
2023/03/05 02:39:08;;;;;;;2.20;2.00;;;15.00;57.30;15.90;101160.00;;;;5030028;28;20211;-46
2023/03/05 02:41:34;;;;;;;2.37;1.80;;;14.90;57.20;15.90;101151.00;;;;5029351;28;20800;-46
2023/03/05 02:44:00;;;;;;;2.33;1.83;;;15.00;57.30;15.90;101153.00;;;;5024250;28;20254;-45
2023/03/05 02:46:26;;;;;;;2.10;1.90;;;14.90;57.20;15.90;101153.00;;;;5031020;28;20207;-44
2023/03/05 02:48:51;;;;;;;2.20;2.00;;;14.90;57.20;15.90;101146.00;;;;5030110;28;20306;-46
2023/03/05 02:51:17;;;;;;;2.20;2.00;;;14.90;57.20;15.90;101139.00;;;;5029514;28;20175;-46
2023/03/05 02:53:43;;;;;;;2.10;1.90;;;14.90;57.20;15.90;101150.00;;;;5030107;28;20171;-46
2023/03/05 02:56:08;;;;;;;1.87;1.77;;;14.90;57.20;15.90;101143.00;;;;5029985;28;20198;-45
2023/03/05 02:58:34;;;;;;;2.33;1.70;;;14.90;57.20;15.90;101141.00;;;;5029989;28;20186;-45
2023/03/05 03:01:00;;;;;;;1.90;1.80;;;14.90;57.20;15.90;101081.00;;;;5028376;28;20182;-45
2023/03/05 03:03:26;;;;;;;1.83;1.70;;;14.90;57.20;15.90;101132.00;;;;5029731;28;20221;-45
2023/03/05 03:05:51;;;;;;;1.80;1.70;;;14.90;57.20;15.90;101141.00;;;;5029646;28;20206;-45
2023/03/05 03:08:17;;;;;;;1.80;1.70;;;14.90;57.20;15.90;101138.00;;;;5029677;28;20203;-45
2023/03/05 03:10:43;;;;;;;2.33;1.70;;;14.90;57.30;15.80;101141.00;;;;5029773;28;20186;-47
2023/03/05 03:13:08;;;;;;;2.17;1.97;;;14.90;57.20;15.80;101135.00;;;;5029930;28;20279;-48
2023/03/05 03:15:34;;;;;;;1.87;1.70;;;14.80;57.10;15.80;101127.00;;;;5029971;28;20253;-46
2023/03/05 03:18:00;;;;;;;2.10;2.00;;;14.80;57.10;15.80;101123.00;;;;5028908;28;20202;-47
2023/03/05 03:20:26;;;;;;;2.13;1.90;;;14.80;57.10;15.80;101119.00;;;;5029711;28;20674;-45
2023/03/05 03:22:52;;;;;;;2.10;1.90;;;14.80;57.10;15.80;101111.00;;;;5026160;28;20610;-46
2023/03/05 03:25:20;;;;;;;2.13;1.80;;;14.80;57.10;15.80;101115.00;;;;5024966;28;20175;-45
2023/03/05 03:27:46;;;;;;;1.77;1.67;;;14.80;57.10;15.80;101047.00;;;;5029211;28;20706;-45
2023/03/05 03:30:12;;;;;;;1.90;1.80;;;14.80;57.10;15.80;101115.00;;;;5029364;28;20269;-46
2023/03/05 03:32:38;;;;;;;2.00;1.90;;;14.80;57.10;15.80;101119.00;;;;5029100;28;20205;-45
2023/03/05 03:35:04;;;;;;;1.90;1.80;;;14.80;57.10;15.70;101114.00;;;;5028497;28;20187;-45
2023/03/05 03:37:31;;;;;;;2.33;1.93;;;14.80;57.10;15.70;101112.00;;;;5029068;28;20171;-45
2023/03/05 03:39:56;;;;;;;2.03;1.83;;;14.80;57.10;15.70;101106.00;;;;5029375;28;20241;-45
2023/03/05 03:42:22;;;;;;;1.70;1.60;;;14.80;57.10;15.70;101105.00;;;;5029379;28;20214;-45
2023/03/05 03:44:48;;;;;;;2.10;1.70;;;14.80;57.10;15.70;101103.00;;;;5029288;28;20787;-45
2023/03/05 03:47:14;;;;;;;1.60;1.47;;;14.70;57.00;15.70;101090.00;;;;5029021;28;20202;-46
2023/03/05 03:49:40;;;;;;;2.10;1.80;;;14.70;57.00;15.70;101083.00;;;;5028548;28;20290;-45
2023/03/05 03:52:06;;;;;;;2.10;1.90;;;14.70;57.10;15.70;101085.00;;;;5029069;28;20179;-45
2023/03/05 03:54:31;;;;;;;1.83;1.73;;;14.70;57.10;15.70;101083.00;;;;5028206;28;20237;-46
2023/03/05 03:56:57;;;;;;;2.20;1.80;;;14.70;57.10;15.70;101079.00;;;;5036094;28;20257;-46
2023/03/05 03:59:23;;;;;;;1.80;1.70;;;14.70;57.10;15.70;101086.00;;;;5046822;28;20183;-47
2023/03/05 04:01:48;;;;;;;2.00;1.80;;;14.70;57.10;15.70;101086.00;;;;5038282;28;20297;-46
2023/03/05 04:04:14;;;;;;;1.80;1.70;;;14.70;57.10;15.60;101078.00;;;;5030541;28;20186;-46
2023/03/05 04:06:40;;;;;;;1.70;1.60;;;14.70;57.10;15.60;101076.00;;;;5029556;28;20209;-46
2023/03/05 04:09:07;;;;;;;1.70;1.60;;;14.70;57.10;15.60;101077.00;;;;5028620;28;20215;-46
2023/03/05 04:11:33;;;;;;;1.80;1.70;;;14.70;57.10;15.60;101073.00;;;;5028916;28;20230;-46
2023/03/05 04:13:59;;;;;;;1.70;1.60;;;14.70;57.10;15.60;101076.00;;;;5028779;28;20178;-46
2023/03/05 04:16:25;;;;;;;1.80;1.70;;;14.60;56.90;15.60;101070.00;;;;5028891;28;20203;-46
2023/03/05 04:18:51;;;;;;;1.97;1.73;;;14.60;57.00;15.60;101067.00;;;;5028900;28;20653;-46
2023/03/05 04:21:16;;;;;;;1.77;1.67;;;14.60;57.30;15.60;101066.00;;;;5028717;28;20221;-46
2023/03/05 04:23:42;;;;;;;2.17;1.60;;;14.60;57.00;15.60;101055.00;;;;5028562;28;20714;-45
2023/03/05 04:26:08;;;;;;;1.93;1.70;;;14.60;56.90;15.60;101066.00;;;;5028556;28;20283;-45
2023/03/05 04:28:34;;;;;;;1.60;1.50;;;14.60;56.90;15.60;101066.00;;;;5027867;28;20207;-47
2023/03/05 04:30:59;;;;;;;2.10;1.80;;;14.60;56.90;15.60;101060.00;;;;5028152;28;20195;-45
2023/03/05 04:33:25;;;;;;;1.77;1.63;;;14.60;56.90;15.50;101058.00;;;;5020147;28;20186;-46
2023/03/05 04:35:51;;;;;;;1.80;1.70;;;14.60;56.90;15.60;101055.00;;;;5028022;28;20705;-45
2023/03/05 04:38:16;;;;;;;1.70;1.60;;;14.60;56.90;15.50;101053.00;;;;5028053;28;20210;-47
2023/03/05 04:40:44;;;;;;;2.00;1.70;;;14.50;56.80;15.50;101043.00;;;;5019406;28;20214;-48
2023/03/05 04:43:09;;;;;;;1.60;1.50;;;14.50;56.90;15.50;101042.00;;;;5024577;28;20190;-45
2023/03/05 04:45:37;;;;;;;2.60;2.10;;;14.60;56.90;15.50;101044.00;;;;5026686;28;20211;-45
2023/03/05 04:48:03;;;;;;;1.83;1.63;;;14.60;57.00;15.50;101037.00;;;;5026792;28;20233;-45
2023/03/05 04:50:29;;;;;;;2.73;1.70;;;14.50;57.10;15.50;101036.00;;;;5027663;28;20641;-44
2023/03/05 04:52:55;;;;;;;2.20;1.60;;;14.50;57.20;15.50;101037.00;;;;5026571;28;20182;-46
2023/03/05 04:55:20;;;;;;;2.07;1.80;;;14.50;57.20;15.50;101035.00;;;;5026778;28;20237;-46
2023/03/05 04:57:46;;;;;;;2.20;1.60;;;14.50;57.20;15.50;101032.00;;;;5027674;28;20182;-46
2023/03/05 05:00:14;;;;;;;6.07;1.80;;;14.60;57.30;15.50;101044.00;;;;5027800;28;20578;-45
2023/03/05 05:02:43;;;;;;;1.67;1.57;;;14.50;57.10;15.50;101029.00;;;;5027584;28;20187;-46
2023/03/05 05:05:15;;;;;;;2.10;1.70;;;14.50;57.10;15.40;101025.00;;;;5027490;28;20795;-46
2023/03/05 05:07:40;;;;;;;1.70;1.60;;;14.50;57.00;15.40;101024.00;;;;5026752;28;20236;-45
2023/03/05 05:10:08;;;;;;;2.60;1.70;;;14.50;56.90;15.40;101021.00;;;;5027018;28;20218;-47
2023/03/05 05:12:34;;;;;;;1.80;1.70;;;14.50;56.90;15.40;101023.00;;;;5027479;28;20182;-45
2023/03/05 05:14:59;;;;;;;2.50;1.90;;;14.50;56.80;15.40;101032.00;;;;5027178;28;20254;-45
2023/03/05 05:17:25;;;;;;;1.93;1.70;;;14.50;56.80;15.40;101028.00;;;;5027456;28;20281;-46
2023/03/05 05:19:51;;;;;;;1.87;1.70;;;14.50;56.80;15.40;101023.00;;;;5019586;28;20179;-52
2023/03/05 05:22:17;;;;;;;2.10;1.80;;;14.50;56.80;15.40;101015.00;;;;5027281;28;20232;-45
2023/03/05 05:24:43;;;;;;;1.60;1.50;;;14.40;56.60;15.40;101016.00;;;;5027228;28;20175;-47
2023/03/05 05:27:08;;;;;;;1.97;1.77;;;14.40;56.50;15.40;101016.00;;;;5031244;28;20198;-47
2023/03/05 05:29:34;;;;;;;2.47;1.83;;;14.40;56.50;15.10;101000.00;;;;5028934;28;20211;-45
2023/03/05 05:32:00;;;;;;;2.10;1.90;;;14.40;56.70;15.30;101007.00;;;;5027046;28;20171;-45
2023/03/05 05:34:26;;;;;;;3.60;1.80;;;14.40;56.40;15.30;100996.00;;;;5026720;28;20596;-46
2023/03/05 05:36:51;;;;;;;2.67;1.90;;;14.40;56.40;15.30;101005.00;;;;5026107;28;20889;-47
2023/03/05 05:39:17;;;;;;;2.57;1.80;;;14.40;56.40;15.30;100943.00;;;;5018582;28;20213;-46
2023/03/05 05:41:43;;;;;;;4.53;2.13;;;14.40;56.40;15.30;101008.00;;;;5026790;28;20207;-46
2023/03/05 05:44:09;;;;;;;4.43;1.97;;;14.30;56.30;15.30;101008.00;;;;5027025;28;20210;-45
2023/03/05 05:46:35;;;;;;;2.90;1.87;;;14.30;56.30;15.30;101010.00;;;;5027662;28;20229;-47
2023/03/05 05:49:00;;;;;;;4.50;1.87;;;14.30;56.30;15.30;101013.00;;;;5027557;28;20221;-45
2023/03/05 05:51:26;;;;;;;4.07;2.00;;;14.40;56.40;15.30;101007.00;;;;5027066;28;20189;-45
2023/03/05 05:53:52;;;;;;;5.93;1.90;;;14.30;56.30;15.30;101006.00;;;;5027520;28;20187;-46
2023/03/05 05:56:18;;;;;;;2.93;1.70;;;14.30;56.30;15.30;101009.00;;;;5028089;28;20195;-45
2023/03/05 05:58:46;;;;;;;3.60;1.87;;;14.40;56.40;15.20;101002.00;;;;5030385;28;20316;-45
2023/03/05 06:01:20;;;;;;;3.80;1.90;;;14.30;56.30;15.20;100999.00;;;;5030582;28;20274;-46
2023/03/05 06:03:46;;;;;;;3.97;2.00;;;14.30;56.40;15.20;100999.00;;;;5031719;28;20240;-46
2023/03/05 06:06:14;;;;;;;4.07;1.90;;;14.30;56.50;15.20;100986.00;;;;5031605;28;20202;-46
2023/03/05 06:08:40;;;;;;;3.30;1.77;;;14.20;56.60;15.20;100977.00;;;;5033918;28;20201;-46
2023/03/05 06:11:06;;;;;;;2.63;1.80;;;14.20;56.60;15.20;100978.00;;;;5035669;28;20235;-45
2023/03/05 06:13:32;;;;;;;4.97;1.83;;;14.20;56.70;15.20;100988.00;;;;5035627;28;20797;-46
2023/03/05 06:15:59;;;;;;;6.43;1.90;;;14.20;56.90;15.20;100985.00;;;;5032342;28;20202;-46
2023/03/05 06:18:25;;;;;;;4.03;1.93;;;14.20;57.00;15.20;100991.00;;;;5030983;28;20213;-45
2023/03/05 06:20:58;;;;;;;3.77;1.80;;;14.20;56.90;15.20;100996.00;;;;5031419;28;20182;-46
2023/03/05 06:23:24;;;;;;;2.90;1.80;;;14.20;56.90;15.20;100987.00;;;;5030707;28;20205;-46
2023/03/05 06:25:50;;;;;;;4.50;2.00;;;14.20;56.90;15.20;100992.00;;;;5030985;28;20210;-45
2023/03/05 06:28:16;;;;;;;5.80;1.73;;;14.20;57.10;15.20;100993.00;;;;5031113;28;20203;-46
2023/03/05 06:30:42;;;;;;;2.80;1.80;;;14.20;57.50;15.20;100995.00;;;;5030040;28;20265;-46
2023/03/05 06:33:07;;;;;;;2.90;1.80;;;14.20;57.30;15.20;100988.00;;;;5030736;28;20179;-46
2023/03/05 06:35:33;;;;;;;3.33;1.70;;;14.10;57.20;15.10;100996.00;;;;5030940;28;20214;-45
2023/03/05 06:37:59;;;;;;;3.67;1.47;;;14.20;57.30;15.10;100990.00;;;;5031239;28;20179;-46
2023/03/05 06:40:24;;;;;;;4.13;1.80;;;14.10;57.20;15.10;100998.00;;;;5031299;28;20248;-45
2023/03/05 06:42:50;;;;;;;2.00;1.47;;;14.10;57.20;15.10;100997.00;;;;5030901;28;20578;-45
2023/03/05 06:45:16;;;;;;;3.23;1.73;;;14.10;57.20;15.10;100999.00;;;;5030763;28;20239;-46
2023/03/05 06:47:42;;;;;;;1.60;1.50;;;14.10;57.30;15.10;101002.00;;;;5030846;28;20191;-46
2023/03/05 06:50:08;;;;;;;2.10;1.70;;;14.10;57.30;15.10;101001.00;;;;5029622;28;20203;-48
2023/03/05 06:52:34;;;;;;;3.63;1.70;;;14.10;57.20;15.10;101002.00;;;;5030536;28;20171;-46
2023/03/05 06:55:00;;;;;;;1.97;1.50;;;14.10;57.20;15.10;100998.00;;;;5030619;28;20229;-45
2023/03/05 06:57:25;;;;;;;3.60;2.13;;;14.10;57.10;15.00;100997.00;;;;5030381;28;20217;-45
2023/03/05 06:59:51;;;;;;;2.20;1.60;;;14.10;57.10;15.10;100997.00;;;;5030712;28;20769;-46
2023/03/05 07:02:17;;;;;;;2.63;1.70;;;14.10;57.10;15.00;100999.00;;;;5025879;28;20204;-47
2023/03/05 07:04:43;;;;;;;2.37;1.80;;;14.10;57.10;15.00;101000.00;;;;5039547;28;20178;-46
2023/03/05 07:07:09;;;;;;;1.80;1.43;;;14.10;57.10;15.00;101003.00;;;;5037228;28;20232;-47
2023/03/05 07:09:41;;;;;;;2.47;1.77;;;14.10;57.80;15.00;100996.00;;;;5031509;28;20199;-50
2023/03/05 07:12:10;;;;;;;2.00;1.50;;;14.10;57.10;14.90;100998.00;;;;5034008;28;20183;-45
2023/03/05 07:14:36;;;;;;;2.20;1.53;;;14.00;57.10;15.00;100984.00;;;;5030889;28;20183;-46
2023/03/05 07:17:02;;;;;;;2.63;1.83;;;14.10;57.20;15.00;100984.00;;;;5030719;28;20199;-45
2023/03/05 07:19:28;;;;;;;1.43;1.30;;;14.00;57.20;15.00;101000.00;;;;5030255;28;20190;-45
2023/03/05 07:21:53;;;;;;;1.50;1.40;;;14.00;57.30;15.00;100985.00;;;;5030255;28;20249;-45
2023/03/05 07:24:19;;;;;;;2.17;1.70;;;14.00;57.20;15.00;100986.00;;;;5032583;28;20253;-45
2023/03/05 07:26:45;;;;;;;1.63;1.43;;;14.00;57.20;15.00;100978.00;;;;5034622;28;20727;-46
2023/03/05 07:29:11;;;;;;;1.90;1.57;;;14.00;57.10;14.90;100974.00;;;;5030460;28;20206;-46
2023/03/05 07:31:36;;;;;;;1.60;1.50;;;14.00;57.20;14.90;100982.00;;;;5031343;28;20190;-46
2023/03/05 07:34:02;;;;;;;1.60;1.50;;;13.90;57.20;14.90;100905.00;;;;5031064;28;20175;-46
2023/03/05 07:36:29;;;;;;;1.70;1.60;;;13.90;57.30;14.90;100931.00;;;;5029888;28;20272;-45
2023/03/05 07:38:54;;;;;;;2.23;1.47;;;13.80;57.30;14.90;100974.00;;;;5028572;28;20175;-47
2023/03/05 07:41:22;;;;;;;1.60;1.50;;;13.90;57.50;14.90;100966.00;;;;5029674;28;20182;-46
2023/03/05 07:43:49;;;;;;;1.50;1.40;;;13.80;57.30;14.90;100968.00;;;;5028435;28;20530;-46
2023/03/05 07:46:16;;;;;;;1.50;1.40;;;13.90;57.40;14.90;100965.00;;;;5030025;28;20229;-46
2023/03/05 07:48:42;;;;;;;1.50;1.40;;;13.90;57.30;14.90;100962.00;;;;5030022;28;20195;-46
2023/03/05 07:51:13;;;;;;;1.73;1.60;;;13.90;57.30;14.90;100961.00;;;;5029850;28;20175;-45
2023/03/05 07:53:39;;;;;;;1.60;1.50;;;13.80;57.30;14.90;100963.00;;;;5028288;28;20177;-46
2023/03/05 07:56:05;;;;;;;1.57;1.40;;;13.90;57.40;14.90;100962.00;;;;5029586;28;20194;-46
2023/03/05 07:58:31;;;;;;;2.50;1.50;;;13.90;57.40;14.90;100964.00;;;;5029743;28;20551;-45
2023/03/05 08:00:57;;;;;;;1.77;1.63;;;13.80;57.40;14.90;100960.00;;;;5028717;28;20262;-48
2023/03/05 08:03:23;;;;;;;2.17;1.70;;;13.80;57.30;14.90;100958.00;;;;5028903;28;20182;-44
2023/03/05 08:05:48;;;;;;;1.47;1.37;;;13.80;57.30;14.80;100961.00;;;;5029194;28;20214;-45
2023/03/05 08:08:15;;;;;;;1.70;1.60;;;13.80;57.40;14.80;100964.00;;;;5029477;28;20194;-46
2023/03/05 08:10:41;;;;;;;1.77;1.63;;;13.80;57.50;14.80;100954.00;;;;5029248;28;20261;-45
2023/03/05 08:13:06;;;;;;;1.50;1.40;;;13.80;57.50;14.80;100959.00;;;;5028067;28;20249;-45
2023/03/05 08:15:32;;;;;;;2.10;1.70;;;13.80;57.50;14.80;100956.00;;;;5029017;28;20199;-45
2023/03/05 08:17:58;;;;;;;1.37;1.27;;;13.80;57.40;14.80;100949.00;;;;5028943;28;20179;-46
2023/03/05 08:20:24;;;;;;;1.47;1.37;;;13.80;57.30;14.80;100947.00;;;;5028853;28;20183;-45
2023/03/05 08:22:49;;;;;;;1.80;1.70;;;13.80;57.30;14.80;100945.00;;;;5025634;28;20266;-47
2023/03/05 08:25:15;;;;;;;2.00;1.63;;;13.80;57.40;14.80;100938.00;;;;5023433;28;20171;-46
2023/03/05 08:27:43;;;;;;;1.60;1.50;;;13.80;57.40;14.80;100942.00;;;;5028268;28;20213;-45
2023/03/05 08:30:12;;;;;;;1.57;1.43;;;13.70;57.40;14.80;100935.00;;;;5032822;28;20218;-46
2023/03/05 08:32:38;;;;;;;3.20;1.50;;;13.70;57.50;14.80;100945.00;;;;5035918;28;20179;-47
2023/03/05 08:35:05;;;;;;;2.70;1.50;;;13.70;57.90;14.80;100940.00;;;;5032800;28;20206;-45
2023/03/05 08:37:31;;;;;;;3.57;1.70;;;13.70;57.90;14.80;100935.00;;;;5036079;28;20668;-47
2023/03/05 08:39:57;;;;;;;2.67;1.53;;;13.70;57.90;14.80;100930.00;;;;5030156;28;20855;-48
2023/03/05 08:42:23;;;;;;;1.67;1.57;;;13.70;57.90;14.70;100932.00;;;;5028229;28;20203;-45
2023/03/05 08:44:49;;;;;;;2.60;1.80;;;13.70;57.90;14.70;100926.00;;;;5028303;28;20190;-45
2023/03/05 08:47:15;;;;;;;5.13;2.13;;;13.80;58.10;14.80;100919.00;;;;5028579;28;20207;-46
2023/03/05 08:49:41;;;;;;;2.40;1.80;;;13.90;58.70;14.80;100920.00;;;;5028182;28;20206;-46
2023/03/05 08:52:06;;;;;;;4.40;1.80;;;13.90;58.50;14.80;100912.00;;;;5028351;28;20674;-46
2023/03/05 08:54:33;;;;;;;4.33;1.60;;;14.00;58.70;14.80;100915.00;;;;5028588;28;20672;-46
2023/03/05 08:56:58;;;;;;;2.40;1.50;;;14.10;58.70;14.90;100916.00;;;;5028629;28;20195;-45
2023/03/05 08:59:24;;;;;;;2.40;1.57;;;14.10;58.50;15.00;100920.00;;;;5028559;28;20549;-46
2023/03/05 09:01:50;;;;;;;3.77;1.57;;;14.20;58.50;15.00;100909.00;;;;5027376;28;20244;-45
2023/03/05 09:04:16;;;;;;;4.37;1.57;;;14.30;58.40;15.10;100898.00;;;;5028563;28;20182;-46
2023/03/05 09:06:41;;;;;;;3.43;1.70;;;14.40;58.50;15.20;100902.00;;;;5026628;28;20285;-45
2023/03/05 09:09:08;;;;;;;3.33;1.60;;;14.50;58.60;15.30;100902.00;;;;5028414;28;20295;-45
2023/03/05 09:11:35;;;;;;;3.60;1.60;;;14.60;58.50;15.40;100905.00;;;;5028172;28;20306;-46
2023/03/05 09:14:02;;;;;;;2.57;1.60;;;14.60;58.40;15.50;100905.00;;;;5028072;28;20186;-47
2023/03/05 09:16:28;;;;;;;1.60;1.50;;;14.80;58.40;15.50;100902.00;;;;5027637;28;20205;-46
2023/03/05 09:18:54;;;;;;;3.27;1.50;;;14.80;58.30;15.70;100902.00;;;;5027860;28;20187;-46
2023/03/05 09:21:19;;;;;;;1.30;1.20;;;15.00;58.30;15.70;100898.00;;;;5028556;28;20657;-46
2023/03/05 09:23:48;;;;;;;3.13;1.43;;;15.10;58.30;15.80;100894.00;;;;5020013;28;20191;-44
2023/03/05 09:26:15;;;;;;;3.07;1.40;;;15.20;58.30;16.00;100897.00;;;;5027949;28;20639;-45
2023/03/05 09:28:41;;;;;;;4.40;1.90;;;15.30;58.60;16.00;100893.00;;;;5028378;28;20290;-45
2023/03/05 09:31:07;;;;;;;3.07;1.40;;;15.30;58.70;16.10;100899.00;;;;5027945;28;20239;-44
2023/03/05 09:33:34;;;;;;;3.10;1.60;;;15.40;58.90;16.20;100886.00;;;;5031374;28;20171;-44
2023/03/05 09:36:00;;;;;;;2.93;1.50;;;15.50;59.00;16.30;100884.00;;;;5033062;28;20707;-44
2023/03/05 09:38:26;;;;;;;2.30;1.50;;;15.60;58.70;16.40;100886.00;;;;5033155;28;20183;-45
2023/03/05 09:41:06;;;;;;;5.90;1.50;;;15.70;58.50;16.50;100883.00;;;;5032641;28;20664;-44
2023/03/05 09:44:18;;;;;;;5.77;1.80;;;15.80;58.50;16.60;100878.00;;;;5030401;28;20201;-45
2023/03/05 09:46:51;;;;;;;5.43;1.90;;;15.90;58.30;16.70;100868.00;;;;5031753;28;20207;-44
2023/03/05 09:49:49;;;;;;;3.57;1.60;;;16.10;58.50;16.80;100859.00;;;;5034518;28;20225;-45
2023/03/05 09:52:33;;;;;;;6.40;1.73;;;16.10;58.50;16.80;100852.00;;;;5030894;28;20202;-44
2023/03/05 09:54:59;;;;;;;4.57;2.00;;;16.20;58.60;16.90;100864.00;;;;5030378;28;20190;-45
2023/03/05 09:57:48;;;;;;;5.67;1.97;;;16.30;58.60;17.00;100854.00;;;;5031401;28;20306;-44
2023/03/05 10:00:27;;;;;;;7.70;2.00;;;16.30;58.60;17.10;100845.00;;;;5030449;28;20171;-45
2023/03/05 10:02:57;;;;;;;3.60;1.70;;;16.50;58.80;17.20;100853.00;;;;5030233;28;20171;-45
2023/03/05 10:05:45;;;;;;;4.33;1.73;;;16.60;58.80;17.30;100854.00;;;;5030100;28;20186;-45
2023/03/05 10:08:11;;;;;;;4.30;1.70;;;16.60;58.80;17.40;100851.00;;;;5031192;28;20777;-46
2023/03/05 10:10:43;;;;;;;4.60;2.00;;;16.80;58.60;17.40;100855.00;;;;5030200;28;20206;-49
2023/03/05 10:13:24;;;;;;;5.30;1.93;;;16.80;58.50;17.50;100859.00;;;;5030481;28;20200;-45
2023/03/05 10:16:34;;;;;;;5.87;1.90;;;16.80;58.30;17.60;100854.00;;;;5029032;28;20210;-45
2023/03/05 10:19:27;;;;;;;7.10;3.60;;;16.90;58.50;17.60;100862.00;;;;5023313;28;20270;-46
2023/03/05 10:22:10;;;;;;;5.33;2.70;;;17.00;61.40;17.70;100846.00;;;;5029765;28;20696;-45
2023/03/05 10:25:09;;;;;;;4.93;2.27;;;17.10;59.90;17.80;100843.00;;;;5014221;28;20222;-45
2023/03/05 10:27:51;;;;;;;5.57;2.47;;;17.10;59.30;17.80;100836.00;;;;5032294;28;20645;-46
2023/03/05 10:30:57;;;;;;;11.10;3.53;;;17.20;58.90;17.80;100831.00;;;;5026347;28;20226;-46
2023/03/05 10:34:03;;;;;;;9.77;4.23;;;17.10;59.30;17.90;100831.00;;;;5017817;28;20196;-45
2023/03/05 10:36:52;;;;;;;9.60;6.20;;;17.20;60.70;17.90;100828.00;;;;5029735;28;20202;-45
2023/03/05 10:39:57;;;;;;;14.23;5.40;;;17.20;62.10;17.90;100829.00;;;;5029612;28;20568;-45
2023/03/05 10:42:47;;;;;;;10.30;5.20;;;17.20;62.30;17.90;100823.00;;;;5031137;28;20612;-45
2023/03/05 10:45:25;;;;;;;14.00;4.20;;;17.20;61.40;17.90;100820.00;;;;5029217;28;20178;-45
2023/03/05 10:48:38;;;;;;;9.50;3.90;;;17.20;60.70;17.90;100826.00;;;;5029624;28;20555;-45
2023/03/05 10:51:35;;;;;;;5.90;3.77;;;17.20;60.20;17.90;100818.00;;;;5031565;28;20287;-45
2023/03/05 10:54:36;;;;;;;6.93;3.40;;;17.20;59.70;17.90;100820.00;;;;5033292;28;20215;-45